createdAt,value
2018-07-27T00:00:37.709Z,61.67
2018-07-27T00:03:07.420Z,63.09
2018-07-27T00:05:37.040Z,63.47
2018-07-27T00:08:06.458Z,64.02
2018-07-27T00:10:35.870Z,63.15
2018-07-27T00:13:05.138Z,63.25
2018-07-27T00:15:34.465Z,63.75
2018-07-27T00:18:03.696Z,63.68
2018-07-27T00:20:32.965Z,64.76
2018-07-27T00:23:02.218Z,64.38
2018-07-27T00:25:31.464Z,63.99
2018-07-27T00:28:00.733Z,64.77
2018-07-27T00:30:30.018Z,64.93
2018-07-27T00:32:59.347Z,65.32
2018-07-27T00:35:28.641Z,65.16
2018-07-27T00:37:57.880Z,65.31
2018-07-27T00:40:26.922Z,66.04
2018-07-27T00:42:56.289Z,66.03
2018-07-27T00:45:25.567Z,66.04
2018-07-27T00:47:54.895Z,66.54
2018-07-27T00:50:24.138Z,66.88
2018-07-27T00:52:53.374Z,65.87
2018-07-27T00:55:22.782Z,66.51
2018-07-27T00:57:52.062Z,67.64
2018-07-27T01:00:21.379Z,67.61
2018-07-27T01:02:50.789Z,68.11
2018-07-27T01:05:20.131Z,68.08
2018-07-27T01:07:49.694Z,67.48
2018-07-27T01:10:19.064Z,67.91
2018-07-27T01:12:48.400Z,67.29
2018-07-27T01:15:17.711Z,66.99
2018-07-27T01:17:47.058Z,66.63
2018-07-27T01:20:16.135Z,66.84
2018-07-27T01:22:45.442Z,67.70
2018-07-27T01:25:14.741Z,67.94
2018-07-27T01:27:44.226Z,68.36
2018-07-27T01:30:13.530Z,67.43
2018-07-27T01:32:43.099Z,67.68
2018-07-27T01:35:12.612Z,67.10
2018-07-27T01:37:42.120Z,68.30
2018-07-27T01:40:11.433Z,69.31
2018-07-27T01:42:40.797Z,69.05
2018-07-27T01:45:10.094Z,68.13
2018-07-27T01:47:39.389Z,68.06
2018-07-27T01:50:08.704Z,68.40
2018-07-27T01:52:38.023Z,69.25
2018-07-27T01:55:07.545Z,68.49
2018-07-27T01:57:36.875Z,68.81
2018-07-27T02:00:06.835Z,69.87
2018-07-27T02:02:36.180Z,68.96
2018-07-27T02:05:06.309Z,68.83
2018-07-27T02:07:35.690Z,69.43
2018-07-27T02:10:05.067Z,68.90
2018-07-27T02:12:34.545Z,68.91
2018-07-27T02:15:04.178Z,69.32
2018-07-27T02:17:33.459Z,68.63
2018-07-27T02:20:02.791Z,69.68
2018-07-27T02:22:32.085Z,69.88
2018-07-27T02:25:01.539Z,70.81
2018-07-27T02:27:30.814Z,70.40
2018-07-27T02:30:00.083Z,70.61
2018-07-27T02:32:29.377Z,71.52
2018-07-27T02:34:58.623Z,73.57
2018-07-27T02:37:27.874Z,74.82
2018-07-27T02:39:57.129Z,74.87
2018-07-27T02:42:26.425Z,73.75
2018-07-27T02:44:55.686Z,73.05
2018-07-27T02:47:24.983Z,71.68
2018-07-27T02:49:54.250Z,71.50
2018-07-27T02:52:23.494Z,71.96
2018-07-27T02:54:52.735Z,71.90
2018-07-27T02:57:22.020Z,72.19
2018-07-27T02:59:51.398Z,73.02
2018-07-27T03:02:20.686Z,72.93
2018-07-27T03:04:49.994Z,72.66
2018-07-27T03:07:19.269Z,72.51
2018-07-27T03:09:48.539Z,73.08
2018-07-27T03:12:17.791Z,73.73
2018-07-27T03:14:47.041Z,73.81
2018-07-27T03:17:16.447Z,73.09
2018-07-27T03:20:16.483Z,73.38
2018-07-27T03:22:45.757Z,73.27
2018-07-27T03:25:14.779Z,73.64
2018-07-27T03:27:44.064Z,73.91
2018-07-27T03:30:13.331Z,73.57
2018-07-27T03:32:42.567Z,74.18
2018-07-27T03:35:11.806Z,72.92
2018-07-27T03:37:41.082Z,73.46
2018-07-27T03:40:10.384Z,73.53
2018-07-27T03:42:39.627Z,73.24
2018-07-27T03:45:08.917Z,73.50
2018-07-27T03:47:38.202Z,74.09
2018-07-27T03:50:07.602Z,73.80
2018-07-27T03:52:36.817Z,73.79
2018-07-27T03:55:06.318Z,74.43
2018-07-27T03:57:35.503Z,74.14
2018-07-27T04:00:07.910Z,73.97
2018-07-27T04:02:37.235Z,74.05
2018-07-27T04:05:06.801Z,74.28
2018-07-27T04:07:36.072Z,74.92
2018-07-27T04:10:06.145Z,74.56
2018-07-27T04:12:35.444Z,74.48
2018-07-27T04:15:04.924Z,73.42
2018-07-27T04:17:34.150Z,71.38
2018-07-27T04:20:03.506Z,72.42
2018-07-27T04:22:32.810Z,72.15
2018-07-27T04:25:02.091Z,72.58
2018-07-27T04:27:31.451Z,71.86
2018-07-27T04:30:00.776Z,71.70
2018-07-27T04:32:30.122Z,72.46
2018-07-27T04:34:59.472Z,72.23
2018-07-27T04:37:28.866Z,71.72
2018-07-27T04:39:58.467Z,71.57
2018-07-27T04:42:27.757Z,71.16
2018-07-27T04:44:57.063Z,72.43
2018-07-27T04:47:26.427Z,70.52
2018-07-27T04:49:55.746Z,70.61
2018-07-27T04:52:25.067Z,71.27
2018-07-27T04:54:54.545Z,71.01
2018-07-27T04:57:23.851Z,71.22
2018-07-27T04:59:53.183Z,71.03
2018-07-27T05:02:22.520Z,70.64
2018-07-27T05:04:52.217Z,70.30
2018-07-27T05:07:21.503Z,69.64
2018-07-27T05:09:50.719Z,69.42
2018-07-27T05:12:19.990Z,67.00
2018-07-27T05:14:49.240Z,63.92
2018-07-27T05:17:18.482Z,63.13
2018-07-27T05:19:47.786Z,61.96
2018-07-27T05:22:17.156Z,60.51
2018-07-27T05:24:46.444Z,58.58
2018-07-27T05:27:15.747Z,57.64
2018-07-27T05:29:45.009Z,56.93
2018-07-27T05:32:14.269Z,56.12
2018-07-27T05:34:43.534Z,56.95
2018-07-27T05:37:12.913Z,56.96
2018-07-27T05:39:42.250Z,56.41
2018-07-27T05:42:11.509Z,55.06
2018-07-27T05:44:41.117Z,54.29
2018-07-27T05:47:10.405Z,54.34
2018-07-27T05:49:39.685Z,55.44
2018-07-27T05:52:08.846Z,56.70
2018-07-27T05:54:38.101Z,55.53
2018-07-27T05:57:07.445Z,55.13
2018-07-27T05:59:36.852Z,54.28
2018-07-27T06:02:10.437Z,55.21
2018-07-27T06:04:38.161Z,53.86
2018-07-27T06:07:08.898Z,53.30
2018-07-27T06:09:38.306Z,52.97
2018-07-27T06:12:08.107Z,52.33
2018-07-27T06:14:37.392Z,52.24
2018-07-27T06:17:07.533Z,51.91
2018-07-27T06:19:36.820Z,52.60
2018-07-27T06:22:06.169Z,51.58
2018-07-27T06:24:51.121Z,50.98
2018-07-27T06:27:20.717Z,51.75
2018-07-27T06:29:50.352Z,52.69
2018-07-27T06:32:20.141Z,51.84
2018-07-27T06:34:49.522Z,51.41
2018-07-27T06:37:18.851Z,52.66
2018-07-27T06:39:48.134Z,53.88
2018-07-27T06:42:17.423Z,52.07
2018-07-27T06:44:46.711Z,51.38
2018-07-27T06:47:16.053Z,51.37
2018-07-27T06:49:45.325Z,52.28
2018-07-27T06:52:14.673Z,52.88
2018-07-27T06:54:43.941Z,53.69
2018-07-27T06:57:13.497Z,51.29
2018-07-27T06:59:42.747Z,50.40
2018-07-27T07:02:12.061Z,50.42
2018-07-27T07:04:41.358Z,48.02
2018-07-27T07:07:10.745Z,48.74
2018-07-27T07:09:40.220Z,48.17
2018-07-27T07:12:09.693Z,48.01
2018-07-27T07:14:39.021Z,49.01
2018-07-27T07:17:08.292Z,47.89
2018-07-27T07:19:37.559Z,47.46
2018-07-27T07:22:06.937Z,47.37
2018-07-27T07:24:36.189Z,48.41
2018-07-27T07:27:05.588Z,46.67
2018-07-27T07:29:34.891Z,47.66
2018-07-27T07:32:04.158Z,47.23
2018-07-27T07:34:33.411Z,47.26
2018-07-27T07:37:02.698Z,46.91
2018-07-27T07:39:32.012Z,46.99
2018-07-27T07:42:01.409Z,45.12
2018-07-27T07:44:30.828Z,46.84
2018-07-27T07:47:00.125Z,47.90
2018-07-27T07:49:29.457Z,46.67
2018-07-27T07:51:58.461Z,46.57
2018-07-27T07:54:27.701Z,45.58
2018-07-27T07:56:57.035Z,46.69
2018-07-27T07:59:26.296Z,46.25
2018-07-27T08:01:55.606Z,44.92
2018-07-27T08:04:24.961Z,44.84
2018-07-27T08:06:54.185Z,45.35
2018-07-27T08:09:23.403Z,44.13
2018-07-27T08:11:52.730Z,44.85
2018-07-27T08:14:22.354Z,44.18
2018-07-27T08:16:51.680Z,44.91
2018-07-27T08:19:21.159Z,43.59
2018-07-27T08:21:50.478Z,43.98
2018-07-27T08:24:19.797Z,43.81
2018-07-27T08:27:07.233Z,43.31
2018-07-27T08:29:41.498Z,42.43
2018-07-27T08:32:10.965Z,43.71
2018-07-27T08:34:40.296Z,42.23
2018-07-27T08:37:09.883Z,41.51
2018-07-27T08:39:42.698Z,41.21
2018-07-27T08:42:12.027Z,41.02
2018-07-27T08:44:42.176Z,39.75
2018-07-27T08:47:11.504Z,40.65
2018-07-27T08:49:40.874Z,39.11
2018-07-27T08:52:10.170Z,38.16
2018-07-27T08:54:39.157Z,37.86
2018-07-27T08:57:08.418Z,38.12
2018-07-27T08:59:37.720Z,37.39
2018-07-27T09:02:07.114Z,38.11
2018-07-27T09:04:36.487Z,37.03
2018-07-27T09:07:06.081Z,37.36
2018-07-27T09:09:35.561Z,36.33
2018-07-27T09:12:04.839Z,36.72
2018-07-27T09:14:34.168Z,35.31
2018-07-27T09:17:03.498Z,35.18
2018-07-27T09:19:32.789Z,34.47
2018-07-27T09:22:02.075Z,34.19
2018-07-27T09:24:31.914Z,34.04
2018-07-27T09:27:01.171Z,34.27
2018-07-27T09:29:30.447Z,34.33
2018-07-27T09:31:59.702Z,33.49
2018-07-27T09:34:29.037Z,34.54
2018-07-27T09:36:58.346Z,34.88
2018-07-27T09:39:27.687Z,32.88
2018-07-27T09:41:57.132Z,33.85
2018-07-27T09:44:26.446Z,34.23
2018-07-27T09:46:55.861Z,34.13
2018-07-27T09:49:25.238Z,35.29
2018-07-27T09:51:54.514Z,33.79
2018-07-27T09:54:23.556Z,35.06
2018-07-27T09:56:52.834Z,35.41
2018-07-27T09:59:22.151Z,34.16
2018-07-27T10:01:51.444Z,34.33
2018-07-27T10:04:20.803Z,34.58
2018-07-27T10:06:50.112Z,35.07
2018-07-27T10:09:19.494Z,34.27
2018-07-27T10:11:48.741Z,33.35
2018-07-27T10:14:18.111Z,34.25
2018-07-27T10:16:47.208Z,33.39
2018-07-27T10:19:16.515Z,34.46
2018-07-27T10:21:45.782Z,34.30
2018-07-27T10:24:15.188Z,34.64
2018-07-27T10:26:44.400Z,32.54
2018-07-27T10:29:13.706Z,33.26
2018-07-27T10:31:43.275Z,34.66
2018-07-27T10:34:12.594Z,33.15
2018-07-27T10:36:41.885Z,32.85
2018-07-27T10:39:12.267Z,33.68
2018-07-27T10:41:41.781Z,33.03
2018-07-27T10:44:11.337Z,32.78
2018-07-27T10:46:41.390Z,32.78
2018-07-27T10:49:11.038Z,32.04
2018-07-27T10:51:40.402Z,32.48
2018-07-27T10:54:10.263Z,31.81
2018-07-27T10:56:39.567Z,32.79
2018-07-27T10:59:09.506Z,32.26
2018-07-27T11:01:38.848Z,31.88
2018-07-27T11:04:08.151Z,31.37
2018-07-27T11:06:37.528Z,32.30
2018-07-27T11:09:09.513Z,31.04
2018-07-27T11:11:38.954Z,32.55
2018-07-27T11:14:08.246Z,30.89
2018-07-27T11:16:37.570Z,33.41
2018-07-27T11:19:06.914Z,31.79
2018-07-27T11:21:36.186Z,31.13
2018-07-27T11:24:05.556Z,31.68
2018-07-27T11:26:35.157Z,32.61
2018-07-27T11:29:05.132Z,32.12
2018-07-27T11:31:34.514Z,31.83
2018-07-27T11:34:03.936Z,31.25
2018-07-27T11:36:33.290Z,31.71
2018-07-27T11:39:02.647Z,30.70
2018-07-27T11:41:31.972Z,31.30
2018-07-27T11:44:01.309Z,32.86
2018-07-27T11:46:30.749Z,32.66
2018-07-27T11:49:00.191Z,32.12
2018-07-27T11:51:29.547Z,31.84
2018-07-27T11:53:58.894Z,30.44
2018-07-27T11:56:28.190Z,31.18
2018-07-27T11:58:57.552Z,31.02
2018-07-27T12:01:26.975Z,30.01
2018-07-27T12:03:56.305Z,29.24
2018-07-27T12:06:25.651Z,28.56
2018-07-27T12:08:54.994Z,29.25
2018-07-27T12:11:24.494Z,29.16
2018-07-27T12:13:53.954Z,29.65
2018-07-27T12:16:23.265Z,28.70
2018-07-27T12:18:52.542Z,27.97
2018-07-27T12:21:22.021Z,28.84
2018-07-27T12:23:52.439Z,29.96
2018-07-27T12:26:22.705Z,28.70
2018-07-27T12:28:52.665Z,28.29
2018-07-27T12:31:22.070Z,29.03
2018-07-27T12:33:51.543Z,29.52
2018-07-27T12:36:20.859Z,29.35
2018-07-27T12:38:50.130Z,29.44
2018-07-27T12:41:19.413Z,28.72
2018-07-27T12:43:48.808Z,29.11
2018-07-27T12:46:18.194Z,29.29
2018-07-27T12:48:47.522Z,28.47
2018-07-27T12:51:16.809Z,29.65
2018-07-27T12:53:46.126Z,29.02
2018-07-27T12:56:15.470Z,28.19
2018-07-27T12:58:44.782Z,29.04
2018-07-27T13:01:14.091Z,29.22
2018-07-27T13:03:43.526Z,29.07
2018-07-27T13:06:12.628Z,31.57
2018-07-27T13:08:42.043Z,31.05
2018-07-27T13:11:11.081Z,30.50
2018-07-27T13:13:40.478Z,30.82
2018-07-27T13:16:09.471Z,31.71
2018-07-27T13:18:38.527Z,31.08
2018-07-27T13:21:08.056Z,30.70
2018-07-27T13:23:38.089Z,31.36
2018-07-27T13:26:25.118Z,32.06
2018-07-27T13:28:40.183Z,31.77
2018-07-27T13:31:10.056Z,30.14
2018-07-27T13:33:39.706Z,31.26
2018-07-27T13:36:08.980Z,30.73
2018-07-27T13:38:38.363Z,30.15
2018-07-27T13:41:08.283Z,30.17
2018-07-27T13:43:37.576Z,29.74
2018-07-27T13:46:06.824Z,31.62
2018-07-27T13:48:36.098Z,31.45
2018-07-27T13:51:05.369Z,30.99
2018-07-27T13:53:34.688Z,30.55
2018-07-27T13:56:03.985Z,30.52
2018-07-27T13:58:33.334Z,30.92
2018-07-27T14:01:02.472Z,30.54
2018-07-27T14:03:31.742Z,30.86
2018-07-27T14:06:01.068Z,31.13
2018-07-27T14:08:30.433Z,31.53
2018-07-27T14:10:59.701Z,29.78
2018-07-27T14:13:28.957Z,29.55
2018-07-27T14:15:58.214Z,30.13
2018-07-27T14:18:27.573Z,30.58
2018-07-27T14:20:56.831Z,30.10
2018-07-27T14:23:26.130Z,30.20
2018-07-27T14:25:55.361Z,30.38
2018-07-27T14:28:24.780Z,30.12
2018-07-27T14:30:54.159Z,30.33
2018-07-27T14:33:23.228Z,30.69
2018-07-27T14:35:52.744Z,31.32
2018-07-27T14:38:21.845Z,32.58
2018-07-27T14:40:51.327Z,32.05
2018-07-27T14:43:20.687Z,32.74
2018-07-27T14:45:50.008Z,32.83
2018-07-27T14:48:19.741Z,31.12
2018-07-27T14:50:48.837Z,31.16
2018-07-27T14:53:18.141Z,30.73
2018-07-27T14:55:47.173Z,30.07
2018-07-27T14:58:16.439Z,30.66
2018-07-27T15:00:46.395Z,30.14
2018-07-27T15:03:15.867Z,30.56
2018-07-27T15:05:45.217Z,30.48
2018-07-27T15:08:14.470Z,30.04
2018-07-27T15:10:43.774Z,29.78
2018-07-27T15:13:13.549Z,29.87
2018-07-27T15:15:43.082Z,30.60
2018-07-27T15:18:12.401Z,30.36
2018-07-27T15:20:41.867Z,29.56
2018-07-27T15:23:11.145Z,29.51
2018-07-27T15:25:40.425Z,29.76
2018-07-27T15:28:09.934Z,29.66
2018-07-27T15:30:39.202Z,30.51
2018-07-27T15:33:08.531Z,31.48
2018-07-27T15:35:37.774Z,31.23
2018-07-27T15:38:06.836Z,31.57
2018-07-27T15:40:36.165Z,32.85
2018-07-27T15:43:05.464Z,32.07
2018-07-27T15:45:34.808Z,31.82
2018-07-27T15:48:04.190Z,31.35
2018-07-27T15:50:33.527Z,31.26
2018-07-27T15:53:02.862Z,30.81
2018-07-27T15:55:32.245Z,31.34
2018-07-27T15:58:01.551Z,31.23
2018-07-27T16:00:31.018Z,31.86
2018-07-27T16:03:00.293Z,31.46
2018-07-27T16:05:29.845Z,31.13
2018-07-27T16:07:59.430Z,31.80
2018-07-27T16:10:29.639Z,31.03
2018-07-27T16:12:59.323Z,30.82
2018-07-27T16:15:28.573Z,30.53
2018-07-27T16:17:57.885Z,30.66
2018-07-27T16:20:26.981Z,31.52
2018-07-27T16:22:56.077Z,31.54
2018-07-27T16:25:25.392Z,31.15
2018-07-27T16:27:54.745Z,31.99
2018-07-27T16:30:24.077Z,32.21
2018-07-27T16:32:54.152Z,32.38
2018-07-27T16:35:24.375Z,32.51
2018-07-27T16:37:55.378Z,33.26
2018-07-27T16:40:25.818Z,33.54
2018-07-27T16:42:55.487Z,32.86
2018-07-27T16:45:25.215Z,32.71
2018-07-27T16:47:54.471Z,33.83
2018-07-27T16:50:25.235Z,33.32
2018-07-27T16:52:54.569Z,33.61
2018-07-27T16:55:23.826Z,33.67
2018-07-27T16:57:53.509Z,34.03
2018-07-27T17:00:22.811Z,32.98
2018-07-27T17:03:00.099Z,31.47
2018-07-27T17:05:29.771Z,29.69
2018-07-27T17:07:59.448Z,29.45
2018-07-27T17:10:29.021Z,29.12
2018-07-27T17:12:58.433Z,28.99
2018-07-27T17:15:27.832Z,28.98
2018-07-27T17:17:57.222Z,28.56
2018-07-27T17:20:26.481Z,28.03
2018-07-27T17:22:55.561Z,27.22
2018-07-27T17:25:24.864Z,27.97
2018-07-27T17:27:54.103Z,28.21
2018-07-27T17:30:23.368Z,28.27
2018-07-27T17:32:52.746Z,29.32
2018-07-27T17:35:22.043Z,30.66
2018-07-27T17:37:51.394Z,30.59
2018-07-27T17:40:20.744Z,31.91
2018-07-27T17:42:50.114Z,33.19
2018-07-27T17:45:19.417Z,32.23
2018-07-27T17:47:48.661Z,32.48
2018-07-27T17:50:17.950Z,32.33
2018-07-27T17:52:47.058Z,33.58
2018-07-27T17:55:16.384Z,33.76
2018-07-27T17:57:45.787Z,33.20
2018-07-27T18:00:15.103Z,33.50
2018-07-27T18:02:44.557Z,33.71
2018-07-27T18:05:13.821Z,34.39
2018-07-27T18:07:42.992Z,34.59
2018-07-27T18:10:12.158Z,34.26
2018-07-27T18:12:41.546Z,33.37
2018-07-27T18:15:11.110Z,32.96
2018-07-27T18:17:41.029Z,33.06
2018-07-27T18:20:11.780Z,32.87
2018-07-27T18:22:41.066Z,33.67
2018-07-27T18:25:14.887Z,33.63
2018-07-27T18:27:44.652Z,34.22
2018-07-27T18:30:13.980Z,34.82
2018-07-27T18:32:43.247Z,34.88
2018-07-27T18:35:13.622Z,35.88
2018-07-27T18:37:43.008Z,36.23
2018-07-27T18:40:12.658Z,36.26
2018-07-27T18:42:41.967Z,36.83
2018-07-27T18:45:11.543Z,37.27
2018-07-27T18:47:40.847Z,37.82
2018-07-27T18:50:10.615Z,38.31
2018-07-27T18:52:55.589Z,38.67
2018-07-27T18:55:24.916Z,39.58
2018-07-27T18:57:54.179Z,39.94
2018-07-27T19:00:23.451Z,40.80
2018-07-27T19:02:52.929Z,41.54
2018-07-27T19:05:22.227Z,42.22
2018-07-27T19:07:51.326Z,42.53
2018-07-27T19:10:20.838Z,43.41
2018-07-27T19:12:50.131Z,43.99
2018-07-27T19:15:19.511Z,43.60
2018-07-27T19:17:48.784Z,44.57
2018-07-27T19:20:17.845Z,45.77
2018-07-27T19:22:47.153Z,45.55
2018-07-27T19:25:16.798Z,45.70
2018-07-27T19:27:46.061Z,45.06
2018-07-27T19:30:15.469Z,45.61
2018-07-27T19:32:44.740Z,46.47
2018-07-27T19:35:14.017Z,46.71
2018-07-27T19:37:43.315Z,47.27
2018-07-27T19:40:12.688Z,48.26
2018-07-27T19:42:41.987Z,48.29
2018-07-27T19:45:11.299Z,47.79
2018-07-27T19:47:40.556Z,46.93
2018-07-27T19:50:09.939Z,46.59
2018-07-27T19:52:39.197Z,46.34
2018-07-27T19:55:08.592Z,46.87
2018-07-27T19:57:37.817Z,46.21
2018-07-27T20:00:08.001Z,46.57
2018-07-27T20:02:37.345Z,47.06
2018-07-27T20:05:07.010Z,47.77
2018-07-27T20:07:36.285Z,46.73
2018-07-27T20:10:06.515Z,46.83
2018-07-27T20:12:35.806Z,46.98
2018-07-27T20:15:05.571Z,47.12
2018-07-27T20:17:35.218Z,47.67
2018-07-27T20:20:04.653Z,48.36
2018-07-27T20:22:34.246Z,48.10
2018-07-27T20:25:04.049Z,48.59
2018-07-27T20:27:33.440Z,49.04
2018-07-27T20:30:02.837Z,48.16
2018-07-27T20:32:32.162Z,48.80
2018-07-27T20:35:01.459Z,49.62
2018-07-27T20:37:31.446Z,49.60
2018-07-27T20:40:00.812Z,49.13
2018-07-27T20:42:30.091Z,49.67
2018-07-27T20:44:59.417Z,49.99
2018-07-27T20:47:29.369Z,50.26
2018-07-27T20:49:58.673Z,50.27
2018-07-27T20:52:27.941Z,50.04
2018-07-27T20:54:57.261Z,50.27
2018-07-27T20:57:26.731Z,50.30
2018-07-27T20:59:56.057Z,51.47
2018-07-27T21:02:25.603Z,51.33
2018-07-27T21:04:54.933Z,51.34
2018-07-27T21:07:24.543Z,51.42
2018-07-27T21:09:53.831Z,51.15
2018-07-27T21:12:23.210Z,51.18
2018-07-27T21:14:52.516Z,51.49
2018-07-27T21:17:23.509Z,51.13
2018-07-27T21:19:52.913Z,51.15
2018-07-27T21:22:22.207Z,50.98
2018-07-27T21:24:51.474Z,51.01
2018-07-27T21:27:20.736Z,51.17
2018-07-27T21:29:50.188Z,51.06
2018-07-27T21:32:19.458Z,51.53
2018-07-27T21:34:48.709Z,51.12
2018-07-27T21:37:18.278Z,50.77
2018-07-27T21:39:47.590Z,50.89
2018-07-27T21:42:16.863Z,50.36
2018-07-27T21:44:46.214Z,50.83
2018-07-27T21:47:15.515Z,51.00
2018-07-27T21:49:44.767Z,50.97
2018-07-27T21:52:14.071Z,50.30
2018-07-27T21:54:43.442Z,50.00
2018-07-27T21:57:13.035Z,50.12
2018-07-27T21:59:42.502Z,50.18
2018-07-27T22:02:11.900Z,50.49
2018-07-27T22:04:41.328Z,50.52
2018-07-27T22:07:10.661Z,50.62
2018-07-27T22:09:39.957Z,51.27
2018-07-27T22:12:09.393Z,51.50
2018-07-27T22:14:38.666Z,51.56
2018-07-27T22:17:07.914Z,51.84
2018-07-27T22:19:37.367Z,51.88
2018-07-27T22:22:06.724Z,52.33
2018-07-27T22:24:35.979Z,52.72
2018-07-27T22:27:05.381Z,52.93
2018-07-27T22:29:34.704Z,53.67
2018-07-27T22:32:03.840Z,54.21
2018-07-27T22:34:33.115Z,54.21
2018-07-27T22:37:02.895Z,54.02
2018-07-27T22:39:32.206Z,53.82
2018-07-27T22:42:01.510Z,54.81
2018-07-27T22:44:30.831Z,55.89
2018-07-27T22:47:00.094Z,55.41
2018-07-27T22:49:29.480Z,55.85
2018-07-27T22:51:58.754Z,55.88
2018-07-27T22:54:27.984Z,56.30
2018-07-27T22:56:57.217Z,56.47
2018-07-27T22:59:26.498Z,56.58
2018-07-27T23:01:55.733Z,57.10
2018-07-27T23:04:24.754Z,57.66
2018-07-27T23:06:54.062Z,58.35
2018-07-27T23:09:23.349Z,58.94
2018-07-27T23:11:52.594Z,59.46
2018-07-27T23:14:21.857Z,60.74
2018-07-27T23:16:51.169Z,60.86
2018-07-27T23:19:20.411Z,61.48
2018-07-27T23:21:49.669Z,62.13
2018-07-27T23:24:19.285Z,63.06
2018-07-27T23:26:48.982Z,62.54
2018-07-27T23:29:18.624Z,62.35
2018-07-27T23:31:47.856Z,62.82
2018-07-27T23:34:17.153Z,63.57
2018-07-27T23:36:46.390Z,63.38
2018-07-27T23:39:15.677Z,63.23
2018-07-27T23:41:44.945Z,64.00
2018-07-27T23:44:14.294Z,64.64
2018-07-27T23:46:43.595Z,64.48
2018-07-27T23:49:12.867Z,65.10
2018-07-27T23:51:42.194Z,65.00
2018-07-27T23:54:11.568Z,65.69
2018-07-27T23:59:09.282Z,65.62
